createdAt,value
2022-07-30T00:02:00.108Z,7.20
2022-07-30T00:05:09.838Z,9.40
2022-07-30T00:08:10.530Z,7.60
2022-07-30T00:11:19.625Z,7.38
2022-07-30T00:14:22.501Z,8.27
2022-07-30T00:17:31.261Z,7.43
2022-07-30T00:20:47.049Z,10.60
2022-07-30T00:24:01.441Z,7.88
2022-07-30T00:27:06.466Z,5.60
2022-07-30T00:30:25.503Z,7.30
2022-07-30T00:33:27.787Z,9.38
2022-07-30T00:36:43.971Z,7.13
2022-07-30T00:39:45.307Z,7.03
2022-07-30T00:46:15.435Z,7.97
2022-07-30T00:49:19.710Z,12.98
2022-07-30T00:52:31.882Z,9.48
2022-07-30T00:55:33.507Z,10.27
2022-07-30T00:58:45.301Z,9.77
2022-07-30T01:01:51.810Z,9.65
2022-07-30T01:05:08.139Z,8.73
2022-07-30T01:08:12.353Z,8.75
2022-07-30T01:11:21.362Z,12.45
2022-07-30T01:14:26.334Z,11.02
2022-07-30T01:17:34.144Z,12.32
2022-07-30T01:20:42.314Z,8.90
2022-07-30T01:23:57.034Z,13.23
2022-07-30T01:27:02.930Z,5.05
2022-07-30T01:30:16.917Z,9.07
2022-07-30T01:33:24.721Z,11.07
2022-07-30T01:36:49.572Z,10.25
2022-07-30T01:39:58.124Z,12.15
2022-07-30T01:43:14.420Z,6.88
2022-07-30T01:46:20.183Z,9.35
2022-07-30T01:49:33.156Z,8.70
2022-07-30T01:52:52.386Z,10.38
2022-07-30T01:56:02.208Z,9.75
2022-07-30T01:59:07.298Z,8.63
2022-07-30T02:02:20.722Z,10.00
2022-07-30T02:05:34.324Z,8.73
2022-07-30T02:08:53.917Z,11.18
2022-07-30T02:12:27.958Z,12.63
2022-07-30T02:15:50.277Z,9.23
2022-07-30T02:19:09.915Z,8.63
2022-07-30T02:22:28.616Z,9.27
2022-07-30T02:25:42.798Z,10.70
2022-07-30T02:32:22.979Z,9.05
2022-07-30T02:35:37.814Z,7.35
2022-07-30T02:38:47.918Z,9.27
2022-07-30T02:42:05.095Z,9.30
2022-07-30T02:45:08.259Z,7.00
2022-07-30T02:48:34.513Z,8.70
2022-07-30T02:51:46.080Z,7.07
2022-07-30T02:54:54.724Z,6.75
2022-07-30T02:57:59.044Z,13.00
2022-07-30T03:01:04.318Z,8.38
2022-07-30T03:04:13.877Z,8.35
2022-07-30T03:07:20.822Z,8.93
2022-07-30T03:10:31.650Z,8.40
2022-07-30T03:13:37.086Z,7.78
2022-07-30T03:16:54.670Z,5.63
2022-07-30T03:20:01.687Z,7.07
2022-07-30T03:23:34.150Z,8.60
2022-07-30T03:30:32.133Z,10.05
2022-07-30T03:53:16.298Z,10.55
2022-07-30T03:56:31.896Z,7.03
2022-07-30T04:03:16.938Z,8.73
2022-07-30T04:06:22.210Z,7.40
2022-07-30T04:09:50.646Z,11.73
2022-07-30T04:13:12.626Z,7.90
2022-07-30T04:16:39.337Z,8.93
2022-07-30T04:20:13.250Z,5.65
2022-07-30T04:23:19.326Z,10.40
2022-07-30T04:26:40.914Z,8.27
2022-07-30T04:29:52.759Z,14.48
2022-07-30T04:33:15.714Z,8.30
2022-07-30T04:36:28.229Z,6.32
2022-07-30T04:39:31.568Z,5.45
2022-07-30T04:42:51.529Z,10.30
2022-07-30T04:45:56.343Z,12.77
2022-07-30T04:49:25.719Z,7.13
2022-07-30T04:56:00.900Z,5.47
2022-07-30T04:59:19.263Z,9.00
2022-07-30T05:02:23.566Z,4.93
2022-07-30T05:05:40.186Z,7.30
2022-07-30T05:08:57.835Z,8.00
2022-07-30T05:12:28.338Z,5.90
2022-07-30T05:16:34.128Z,9.15
2022-07-30T05:19:40.626Z,6.85
2022-07-30T05:22:57.936Z,6.20
2022-07-30T05:30:00.532Z,12.02
2022-07-30T05:33:20.439Z,5.53
2022-07-30T05:40:50.246Z,7.20
2022-07-30T05:44:05.556Z,7.50
2022-07-30T05:47:08.948Z,11.38
2022-07-30T05:50:26.043Z,4.90
2022-07-30T05:53:39.876Z,7.68
2022-07-30T05:56:54.340Z,10.95
2022-07-30T06:00:08.072Z,8.82
2022-07-30T06:03:16.611Z,6.00
2022-07-30T06:06:27.311Z,6.95
2022-07-30T06:09:36.697Z,5.17
2022-07-30T06:16:24.399Z,7.50
2022-07-30T06:19:50.194Z,7.35
2022-07-30T06:23:51.489Z,5.07
2022-07-30T06:46:03.437Z,7.70
2022-07-30T07:30:26.395Z,5.82
2022-07-30T08:40:26.637Z,5.78
2022-07-30T08:52:16.670Z,10.40
2022-07-30T08:59:03.946Z,9.55
2022-07-30T09:02:31.059Z,7.07
2022-07-30T09:05:31.232Z,7.13
2022-07-30T09:12:04.181Z,9.93
2022-07-30T09:15:18.788Z,9.45
2022-07-30T09:18:48.305Z,6.95
2022-07-30T10:19:39.943Z,7.35
2022-07-30T16:23:14.924Z,8.85
2022-07-30T19:58:29.689Z,9.90
2022-07-30T20:10:41.972Z,11.75
2022-07-30T21:06:22.678Z,14.80
2022-07-30T21:09:52.029Z,17.73
2022-07-30T21:13:32.430Z,13.67
2022-07-30T21:16:55.850Z,17.05
2022-07-30T21:20:27.854Z,16.40
2022-07-30T21:23:41.340Z,24.83
2022-07-30T21:30:24.270Z,28.33
2022-07-30T21:33:37.287Z,29.17
2022-07-30T21:36:42.254Z,31.20
2022-07-30T21:39:58.762Z,30.02
2022-07-30T21:43:03.411Z,31.10
2022-07-30T21:46:24.923Z,38.30
2022-07-30T21:49:56.845Z,40.28
2022-07-30T21:57:01.290Z,35.15
2022-07-30T22:01:16.345Z,41.85
2022-07-30T22:05:23.906Z,42.22
2022-07-30T22:09:45.270Z,44.22
2022-07-30T22:13:22.361Z,43.10
2022-07-30T22:19:57.746Z,33.13
2022-07-30T22:23:09.847Z,39.47
2022-07-30T22:26:09.953Z,32.70
2022-07-30T22:29:19.221Z,33.67
2022-07-30T22:32:20.339Z,40.67
2022-07-30T22:36:06.138Z,35.08
2022-07-30T22:39:31.947Z,32.95
2022-07-30T22:46:14.925Z,24.65
2022-07-30T22:50:17.368Z,23.55
2022-07-30T22:54:10.639Z,29.95
2022-07-30T23:00:27.965Z,24.25
2022-07-30T23:03:45.346Z,23.13
2022-07-30T23:06:53.362Z,26.15
2022-07-30T23:10:04.889Z,19.13
2022-07-30T23:13:24.225Z,26.77
2022-07-30T23:16:37.023Z,25.35
2022-07-30T23:23:02.979Z,33.28
2022-07-30T23:26:05.298Z,23.45
2022-07-30T23:29:14.667Z,26.45
2022-07-30T23:32:20.464Z,25.08
2022-07-30T23:35:28.204Z,28.13
2022-07-30T23:38:28.996Z,29.48
2022-07-30T23:41:48.283Z,20.88
2022-07-30T23:44:50.851Z,21.85
2022-07-30T23:48:02.499Z,27.42
2022-07-30T23:58:00.544Z,28.05
